createdAt,value
2019-03-21T00:01:01.957Z,27.00
2019-03-21T00:03:30.553Z,24.77
2019-03-21T00:05:59.146Z,30.10
2019-03-21T00:08:27.733Z,25.60
2019-03-21T00:11:11.174Z,39.37
2019-03-21T00:13:39.768Z,31.63
2019-03-21T00:16:13.520Z,29.57
2019-03-21T00:18:41.660Z,33.63
2019-03-21T00:21:10.225Z,29.23
2019-03-21T00:23:38.826Z,30.03
2019-03-21T00:26:07.401Z,36.13
2019-03-21T00:28:36.013Z,30.97
2019-03-21T00:31:04.596Z,32.07
2019-03-21T00:33:33.243Z,32.33
2019-03-21T00:36:01.765Z,29.00
2019-03-21T00:38:30.346Z,34.27
2019-03-21T00:40:58.942Z,33.10
2019-03-21T00:43:27.512Z,31.10
2019-03-21T00:45:56.126Z,32.20
2019-03-21T00:48:24.709Z,32.13
2019-03-21T00:50:53.281Z,28.67
2019-03-21T00:53:21.854Z,32.67
2019-03-21T00:55:54.617Z,32.10
2019-03-21T00:58:23.193Z,28.47
2019-03-21T01:01:02.714Z,37.27
2019-03-21T01:03:31.346Z,31.20
2019-03-21T01:05:59.943Z,33.37
2019-03-21T01:08:28.596Z,33.63
2019-03-21T01:10:57.200Z,35.70
2019-03-21T01:13:31.755Z,34.50
2019-03-21T01:16:00.423Z,35.60
2019-03-21T01:18:28.990Z,35.10
2019-03-21T01:20:57.579Z,33.93
2019-03-21T01:23:26.136Z,35.73
2019-03-21T01:26:00.533Z,34.37
2019-03-21T01:28:29.036Z,34.23
2019-03-21T01:30:57.641Z,35.53
2019-03-21T01:33:26.202Z,35.80
2019-03-21T01:35:56.342Z,34.10
2019-03-21T01:38:24.909Z,37.93
2019-03-21T01:41:12.973Z,35.23
2019-03-21T01:43:41.675Z,37.93
2019-03-21T01:46:13.081Z,32.97
2019-03-21T01:48:41.647Z,35.20
2019-03-21T01:51:10.249Z,48.73
2019-03-21T01:53:38.883Z,32.97
2019-03-21T01:56:07.529Z,35.80
2019-03-21T01:58:36.102Z,33.10
2019-03-21T02:01:04.762Z,32.80
2019-03-21T02:03:33.333Z,42.67
2019-03-21T02:06:01.940Z,29.60
2019-03-21T02:08:30.495Z,32.23
2019-03-21T02:10:59.093Z,31.83
2019-03-21T02:13:27.657Z,34.87
2019-03-21T02:15:59.202Z,34.27
2019-03-21T02:18:26.495Z,40.23
2019-03-21T02:20:55.077Z,32.00
2019-03-21T02:23:24.214Z,34.23
2019-03-21T02:25:52.815Z,39.00
2019-03-21T02:28:21.410Z,31.90
2019-03-21T02:30:51.512Z,34.03
2019-03-21T02:33:34.349Z,29.97
2019-03-21T02:36:06.002Z,29.33
2019-03-21T02:38:36.122Z,36.10
2019-03-21T02:41:08.154Z,33.93
2019-03-21T02:43:37.188Z,36.27
2019-03-21T02:46:05.796Z,30.53
2019-03-21T02:48:34.387Z,31.10
2019-03-21T02:51:02.979Z,36.60
2019-03-21T02:53:31.563Z,34.73
2019-03-21T02:56:00.164Z,32.43
2019-03-21T02:58:28.728Z,31.97
2019-03-21T03:00:57.356Z,38.40
2019-03-21T03:03:25.889Z,37.27
2019-03-21T03:05:54.585Z,30.83
2019-03-21T03:08:23.241Z,33.53
2019-03-21T03:10:56.753Z,36.00
2019-03-21T03:13:25.596Z,38.03
2019-03-21T03:15:54.233Z,37.33
2019-03-21T03:18:25.049Z,33.80
2019-03-21T03:20:53.643Z,34.53
2019-03-21T03:23:22.214Z,37.77
2019-03-21T03:25:51.509Z,36.87
2019-03-21T03:28:28.377Z,39.63
2019-03-21T03:30:58.782Z,34.17
2019-03-21T03:33:27.996Z,34.40
2019-03-21T03:35:56.583Z,36.73
2019-03-21T03:38:25.167Z,33.13
2019-03-21T03:41:04.932Z,30.80
2019-03-21T03:43:33.504Z,33.60
2019-03-21T03:46:02.082Z,37.03
2019-03-21T03:48:30.711Z,34.60
2019-03-21T03:50:59.605Z,34.43
2019-03-21T03:53:28.378Z,34.00
2019-03-21T03:55:56.963Z,34.90
2019-03-21T03:58:33.689Z,35.27
2019-03-21T04:01:02.254Z,35.27
2019-03-21T04:03:30.857Z,36.67
2019-03-21T04:05:59.476Z,38.97
2019-03-21T04:08:29.605Z,40.27
2019-03-21T04:10:58.651Z,35.33
2019-03-21T04:13:27.230Z,34.27
2019-03-21T04:15:55.816Z,32.97
2019-03-21T04:18:25.544Z,33.97
2019-03-21T04:21:06.763Z,35.87
2019-03-21T04:23:35.362Z,32.10
2019-03-21T04:26:07.329Z,31.17
2019-03-21T04:28:36.005Z,36.27
2019-03-21T04:31:04.566Z,34.80
2019-03-21T04:33:33.148Z,29.93
2019-03-21T04:36:01.719Z,31.27
2019-03-21T04:38:30.349Z,35.27
2019-03-21T04:40:58.930Z,31.97
2019-03-21T04:43:27.526Z,32.17
2019-03-21T04:46:03.465Z,36.63
2019-03-21T04:48:26.331Z,31.13
2019-03-21T04:50:54.911Z,34.10
2019-03-21T04:53:23.495Z,38.13
2019-03-21T04:55:52.099Z,30.47
2019-03-21T04:58:20.683Z,33.30
2019-03-21T05:00:57.192Z,31.10
2019-03-21T05:03:31.062Z,33.27
2019-03-21T05:05:59.618Z,35.97
2019-03-21T05:08:28.226Z,32.03
2019-03-21T05:10:56.819Z,32.90
2019-03-21T05:13:25.460Z,34.20
2019-03-21T05:15:54.800Z,30.37
2019-03-21T05:18:29.506Z,38.17
2019-03-21T05:20:59.327Z,35.57
2019-03-21T05:23:27.925Z,39.20
2019-03-21T05:25:56.488Z,35.30
2019-03-21T05:28:25.491Z,32.90
2019-03-21T05:30:56.704Z,33.83
2019-03-21T05:33:25.297Z,34.33
2019-03-21T05:35:54.048Z,34.87
2019-03-21T05:38:25.189Z,34.90
2019-03-21T05:40:53.753Z,34.77
2019-03-21T05:43:34.058Z,28.67
2019-03-21T05:46:02.623Z,32.73
2019-03-21T05:48:32.090Z,34.40
2019-03-21T05:51:00.649Z,32.10
2019-03-21T05:53:29.628Z,31.77
2019-03-21T05:55:58.255Z,34.77
2019-03-21T05:58:26.908Z,35.80
2019-03-21T06:01:07.254Z,39.67
2019-03-21T06:03:49.691Z,36.90
2019-03-21T06:06:33.213Z,34.93
2019-03-21T06:09:01.838Z,31.13
2019-03-21T06:11:30.802Z,33.03
2019-03-21T06:13:59.428Z,33.83
2019-03-21T06:16:37.224Z,34.43
2019-03-21T06:19:14.106Z,39.93
2019-03-21T06:22:09.859Z,34.80
2019-03-21T06:24:56.760Z,36.00
2019-03-21T06:27:27.576Z,29.33
2019-03-21T06:29:56.776Z,31.50
2019-03-21T06:32:27.336Z,38.23
2019-03-21T06:34:57.294Z,33.67
2019-03-21T06:37:28.721Z,34.40
2019-03-21T06:39:56.942Z,32.83
2019-03-21T06:42:27.208Z,33.50
2019-03-21T06:44:55.825Z,32.33
2019-03-21T06:47:24.365Z,32.37
2019-03-21T06:49:53.053Z,32.87
2019-03-21T06:52:21.644Z,31.73
2019-03-21T06:54:50.234Z,32.90
2019-03-21T06:57:18.821Z,34.13
2019-03-21T06:59:47.414Z,36.63
2019-03-21T07:02:15.990Z,38.77
2019-03-21T07:04:44.589Z,33.60
2019-03-21T07:07:13.496Z,42.30
2019-03-21T07:09:42.484Z,37.73
2019-03-21T07:12:11.099Z,33.37
2019-03-21T07:14:40.035Z,35.23
2019-03-21T07:17:08.647Z,45.13
2019-03-21T07:19:37.392Z,39.47
2019-03-21T07:22:06.006Z,37.13
2019-03-21T07:24:37.672Z,37.20
2019-03-21T07:27:06.352Z,39.43
2019-03-21T07:29:34.936Z,41.80
2019-03-21T07:32:03.549Z,38.53
2019-03-21T07:34:32.139Z,38.27
2019-03-21T07:37:00.753Z,42.93
2019-03-21T07:39:29.341Z,38.87
2019-03-21T07:41:57.963Z,43.77
2019-03-21T07:44:26.997Z,38.97
2019-03-21T07:46:55.635Z,39.40
2019-03-21T07:49:24.282Z,41.07
2019-03-21T07:51:53.073Z,40.57
2019-03-21T07:54:22.018Z,41.23
2019-03-21T07:56:50.693Z,39.03
2019-03-21T07:59:19.650Z,38.97
2019-03-21T08:01:48.324Z,36.83
2019-03-21T08:04:16.903Z,50.77
2019-03-21T08:06:45.516Z,49.63
2019-03-21T08:09:14.094Z,37.83
2019-03-21T08:11:42.791Z,40.57
2019-03-21T08:14:11.359Z,38.50
2019-03-21T08:16:39.976Z,37.47
2019-03-21T08:19:08.548Z,39.37
2019-03-21T08:21:37.146Z,44.10
2019-03-21T08:24:05.728Z,40.53
2019-03-21T08:26:34.362Z,34.43
2019-03-21T08:29:02.947Z,39.10
2019-03-21T08:31:31.561Z,41.10
2019-03-21T08:34:00.129Z,36.67
2019-03-21T08:36:28.748Z,37.27
2019-03-21T08:38:57.323Z,32.00
2019-03-21T08:41:25.919Z,43.17
2019-03-21T08:43:54.906Z,34.70
2019-03-21T08:46:23.477Z,37.47
2019-03-21T08:48:52.074Z,33.53
2019-03-21T08:51:20.644Z,33.70
2019-03-21T08:53:49.263Z,33.07
2019-03-21T08:56:17.866Z,31.93
2019-03-21T08:58:46.805Z,33.27
2019-03-21T09:01:15.392Z,34.73
2019-03-21T09:03:44.080Z,30.73
2019-03-21T09:06:12.694Z,32.43
2019-03-21T09:08:41.678Z,34.50
2019-03-21T09:11:10.301Z,29.13
2019-03-21T09:13:38.895Z,28.60
2019-03-21T09:16:07.486Z,31.50
2019-03-21T09:18:36.391Z,31.53
2019-03-21T09:21:05.399Z,28.40
2019-03-21T09:23:34.011Z,25.63
2019-03-21T09:26:02.603Z,27.23
2019-03-21T09:28:31.215Z,26.33
2019-03-21T09:31:00.263Z,29.43
2019-03-21T09:33:28.888Z,28.20
2019-03-21T09:35:57.467Z,26.83
2019-03-21T09:38:26.073Z,29.20
2019-03-21T09:40:54.729Z,30.50
2019-03-21T09:43:23.335Z,33.77
2019-03-21T09:45:52.349Z,28.43
2019-03-21T09:48:20.956Z,28.83
2019-03-21T09:50:49.751Z,27.40
2019-03-21T09:53:18.341Z,24.57
2019-03-21T09:55:46.990Z,28.23
2019-03-21T09:58:15.951Z,25.53
2019-03-21T10:00:44.903Z,27.97
2019-03-21T10:03:13.797Z,25.80
2019-03-21T10:05:42.497Z,25.23
2019-03-21T10:08:11.488Z,27.70
2019-03-21T10:10:40.103Z,23.03
2019-03-21T10:13:08.677Z,26.27
2019-03-21T10:15:37.299Z,25.43
2019-03-21T10:18:06.201Z,22.53
2019-03-21T10:20:34.813Z,22.93
2019-03-21T10:23:03.474Z,23.77
2019-03-21T10:25:32.503Z,21.53
2019-03-21T10:28:01.114Z,20.93
2019-03-21T10:30:38.816Z,24.07
2019-03-21T10:33:09.501Z,21.50
2019-03-21T10:35:38.169Z,18.57
2019-03-21T10:38:07.388Z,17.60
2019-03-21T10:40:36.463Z,24.00
2019-03-21T10:43:06.069Z,21.30
2019-03-21T10:45:35.061Z,22.50
2019-03-21T10:48:23.629Z,21.70
2019-03-21T10:50:52.244Z,21.57
2019-03-21T10:53:20.874Z,20.10
2019-03-21T10:55:49.479Z,21.07
2019-03-21T10:58:18.139Z,17.83
2019-03-21T11:00:46.752Z,22.33
2019-03-21T11:03:15.323Z,23.43
2019-03-21T11:05:44.305Z,23.67
2019-03-21T11:08:12.893Z,21.97
2019-03-21T11:10:41.469Z,20.27
2019-03-21T11:13:10.143Z,19.63
2019-03-21T11:15:38.722Z,20.07
2019-03-21T11:18:07.465Z,15.37
2019-03-21T11:20:37.544Z,17.37
2019-03-21T11:23:06.841Z,19.13
2019-03-21T11:25:35.424Z,17.20
2019-03-21T11:28:04.356Z,18.57
2019-03-21T11:30:35.087Z,17.87
2019-03-21T11:33:03.957Z,17.33
2019-03-21T11:35:33.241Z,16.23
2019-03-21T11:38:02.060Z,15.37
2019-03-21T11:40:30.664Z,16.70
2019-03-21T11:42:59.719Z,19.83
2019-03-21T11:45:30.062Z,18.30
2019-03-21T11:47:59.973Z,21.50
2019-03-21T11:50:29.135Z,19.27
2019-03-21T11:52:57.738Z,25.80
2019-03-21T11:55:26.315Z,24.00
2019-03-21T11:57:54.988Z,25.23
2019-03-21T12:00:23.553Z,20.00
2019-03-21T12:02:52.158Z,23.23
2019-03-21T12:05:20.799Z,25.70
2019-03-21T12:07:49.412Z,27.50
2019-03-21T12:10:18.050Z,29.03
2019-03-21T12:12:46.666Z,27.80
2019-03-21T12:15:15.716Z,26.13
2019-03-21T12:17:44.566Z,30.73
2019-03-21T12:20:16.052Z,27.13
2019-03-21T12:22:47.172Z,35.10
2019-03-21T12:25:15.250Z,32.93
2019-03-21T12:27:43.869Z,30.10
2019-03-21T12:30:15.527Z,35.17
2019-03-21T12:32:44.150Z,36.73
2019-03-21T12:35:12.715Z,30.63
2019-03-21T12:37:41.332Z,32.27
2019-03-21T12:40:10.126Z,37.23
2019-03-21T12:42:38.731Z,32.63
2019-03-21T12:45:09.836Z,35.00
2019-03-21T12:47:38.437Z,34.20
2019-03-21T12:50:09.075Z,33.53
2019-03-21T12:52:41.589Z,35.33
2019-03-21T12:55:08.071Z,32.07
2019-03-21T12:57:37.051Z,35.63
2019-03-21T13:00:08.456Z,33.97
2019-03-21T13:02:37.076Z,33.43
2019-03-21T13:05:07.693Z,27.83
2019-03-21T13:07:36.294Z,32.23
2019-03-21T13:10:08.162Z,35.83
2019-03-21T13:12:36.765Z,36.00
2019-03-21T13:17:34.288Z,29.23
2019-03-21T13:20:03.142Z,32.60
2019-03-21T13:22:31.720Z,34.07
2019-03-21T13:25:00.404Z,31.10
2019-03-21T13:27:29.378Z,32.50
2019-03-21T13:29:58.247Z,29.63
2019-03-21T13:32:26.843Z,30.83
2019-03-21T13:34:55.461Z,28.77
2019-03-21T13:37:24.040Z,30.80
2019-03-21T13:39:52.650Z,32.67
2019-03-21T13:42:21.237Z,28.93
2019-03-21T13:44:49.834Z,30.63
2019-03-21T13:47:18.418Z,31.07
2019-03-21T13:49:47.019Z,33.50
2019-03-21T13:52:15.593Z,30.80
2019-03-21T13:54:44.189Z,30.30
2019-03-21T13:57:12.788Z,28.27
2019-03-21T13:59:41.393Z,30.37
2019-03-21T14:02:09.977Z,31.53
2019-03-21T14:04:38.655Z,25.07
2019-03-21T14:07:07.246Z,31.83
2019-03-21T14:09:36.129Z,32.27
2019-03-21T14:12:05.271Z,32.30
2019-03-21T14:14:33.869Z,30.03
2019-03-21T14:17:02.518Z,31.57
2019-03-21T14:19:31.127Z,33.07
2019-03-21T14:21:59.719Z,28.63
2019-03-21T14:24:28.313Z,31.33
2019-03-21T14:26:56.895Z,32.50
2019-03-21T14:29:25.498Z,28.43
2019-03-21T14:31:54.078Z,32.30
2019-03-21T14:34:22.680Z,28.33
2019-03-21T14:36:51.256Z,26.07
2019-03-21T14:39:19.887Z,27.77
2019-03-21T14:41:48.471Z,24.87
2019-03-21T14:44:17.495Z,27.47
2019-03-21T14:46:46.111Z,26.40
2019-03-21T14:49:14.682Z,24.93
2019-03-21T14:51:43.269Z,25.70
2019-03-21T14:54:11.866Z,25.17
2019-03-21T14:56:40.453Z,29.90
2019-03-21T14:59:09.370Z,22.47
2019-03-21T15:01:40.596Z,28.67
2019-03-21T15:04:08.220Z,25.37
2019-03-21T15:06:36.791Z,23.93
2019-03-21T15:09:06.914Z,27.83
2019-03-21T15:11:36.105Z,23.67
2019-03-21T15:14:04.822Z,23.90
2019-03-21T15:16:33.528Z,28.63
2019-03-21T15:19:02.098Z,28.83
2019-03-21T15:21:30.693Z,26.43
2019-03-21T15:23:59.986Z,22.60
2019-03-21T15:26:28.664Z,26.43
2019-03-21T15:28:57.259Z,31.00
2019-03-21T15:31:25.878Z,25.03
2019-03-21T15:33:54.446Z,24.40
2019-03-21T15:36:23.098Z,23.50
2019-03-21T15:38:51.688Z,23.40
2019-03-21T15:41:20.298Z,25.70
2019-03-21T15:43:48.877Z,24.90
2019-03-21T15:46:17.878Z,26.10
2019-03-21T15:48:46.451Z,25.80
2019-03-21T15:51:15.063Z,25.13
2019-03-21T15:53:54.576Z,23.13
2019-03-21T15:56:14.474Z,24.17
2019-03-21T15:58:43.049Z,26.50
2019-03-21T16:01:11.646Z,29.80
2019-03-21T16:03:40.537Z,25.33
2019-03-21T16:06:09.136Z,23.73
2019-03-21T16:08:37.710Z,24.33
2019-03-21T16:11:06.318Z,26.23
2019-03-21T16:13:34.890Z,25.07
2019-03-21T16:16:03.926Z,25.83
2019-03-21T16:18:32.502Z,24.17
2019-03-21T16:21:01.108Z,26.30
2019-03-21T16:23:30.025Z,27.73
2019-03-21T16:25:58.629Z,26.70
2019-03-21T16:28:27.215Z,25.17
2019-03-21T16:30:56.219Z,28.17
2019-03-21T16:33:24.815Z,30.73
2019-03-21T16:35:54.011Z,26.93
2019-03-21T16:38:22.586Z,26.53
2019-03-21T16:40:51.197Z,26.67
2019-03-21T16:43:20.059Z,26.03
2019-03-21T16:45:48.669Z,28.80
2019-03-21T16:48:17.245Z,25.63
2019-03-21T16:50:45.815Z,28.73
2019-03-21T16:53:14.426Z,27.20
2019-03-21T16:55:42.989Z,24.00
2019-03-21T16:58:11.981Z,24.63
2019-03-21T17:00:40.726Z,29.83
2019-03-21T17:03:09.655Z,24.80
2019-03-21T17:05:38.226Z,24.77
2019-03-21T17:08:11.451Z,27.70
2019-03-21T17:10:37.095Z,30.73
2019-03-21T17:13:06.463Z,26.43
2019-03-21T17:15:36.247Z,25.37
2019-03-21T17:18:05.153Z,32.30
2019-03-21T17:20:33.751Z,33.10
2019-03-21T17:23:02.629Z,27.97
2019-03-21T17:25:31.703Z,30.63
2019-03-21T17:28:00.340Z,30.30
2019-03-21T17:30:29.305Z,28.00
2019-03-21T17:32:57.913Z,32.70
2019-03-21T17:35:26.478Z,32.17
2019-03-21T17:37:55.106Z,26.20
2019-03-21T17:40:23.687Z,29.30
2019-03-21T17:42:52.298Z,29.20
2019-03-21T17:45:20.877Z,31.97
2019-03-21T17:47:49.551Z,29.60
2019-03-21T17:50:19.059Z,29.50
2019-03-21T17:52:48.410Z,32.53
2019-03-21T17:55:17.629Z,31.00
2019-03-21T17:57:46.203Z,33.93
2019-03-21T18:00:24.343Z,32.80
2019-03-21T18:02:53.039Z,31.70
2019-03-21T18:05:21.712Z,31.70
2019-03-21T18:07:50.306Z,30.37
2019-03-21T18:10:29.653Z,34.47
2019-03-21T18:12:58.582Z,30.60
2019-03-21T18:15:27.976Z,30.97
2019-03-21T18:17:56.751Z,30.63
2019-03-21T18:20:25.499Z,32.50
2019-03-21T18:22:54.667Z,30.10
2019-03-21T18:25:23.227Z,31.40
2019-03-21T18:27:51.967Z,31.10
2019-03-21T18:30:20.621Z,46.97
2019-03-21T18:32:49.609Z,29.33
2019-03-21T18:35:18.326Z,31.97
2019-03-21T18:37:46.932Z,32.20
2019-03-21T18:40:15.586Z,35.73
2019-03-21T18:42:44.545Z,31.77
2019-03-21T18:45:15.263Z,31.43
2019-03-21T18:47:43.927Z,32.70
2019-03-21T18:50:14.445Z,42.83
2019-03-21T18:52:43.101Z,34.90
2019-03-21T18:55:12.123Z,35.17
2019-03-21T18:57:40.738Z,36.40
2019-03-21T19:00:19.096Z,31.47
2019-03-21T19:02:47.755Z,36.90
2019-03-21T19:05:16.519Z,35.50
2019-03-21T19:07:45.222Z,33.40
2019-03-21T19:10:15.639Z,37.67
2019-03-21T19:12:44.421Z,33.60
2019-03-21T19:15:16.271Z,33.53
2019-03-21T19:17:44.855Z,36.33
2019-03-21T19:20:16.446Z,35.00
2019-03-21T19:22:45.030Z,33.63
2019-03-21T19:25:19.076Z,33.00
2019-03-21T19:27:44.757Z,36.10
2019-03-21T19:30:21.387Z,34.43
2019-03-21T19:32:49.964Z,36.37
2019-03-21T19:35:18.999Z,33.50
2019-03-21T19:37:48.106Z,35.50
2019-03-21T19:40:18.660Z,35.10
2019-03-21T19:42:47.247Z,30.47
2019-03-21T19:45:20.062Z,35.33
2019-03-21T19:47:48.652Z,41.47
2019-03-21T19:50:23.609Z,39.37
2019-03-21T19:52:52.532Z,40.03
2019-03-21T19:55:30.696Z,40.97
2019-03-21T19:57:51.756Z,39.30
2019-03-21T20:00:22.008Z,38.17
2019-03-21T20:02:51.208Z,38.90
2019-03-21T20:05:19.828Z,42.33
2019-03-21T20:08:07.736Z,39.37
2019-03-21T20:10:36.505Z,40.30
2019-03-21T20:13:05.164Z,36.47
2019-03-21T20:15:33.852Z,35.63
2019-03-21T20:18:02.423Z,36.10
2019-03-21T20:20:31.202Z,47.37
2019-03-21T20:22:59.897Z,44.30
2019-03-21T20:25:28.518Z,40.07
2019-03-21T20:27:57.084Z,38.33
2019-03-21T20:30:25.691Z,37.63
2019-03-21T20:32:54.256Z,39.43
2019-03-21T20:35:22.861Z,38.07
2019-03-21T20:37:51.466Z,36.57
2019-03-21T20:40:20.648Z,35.17
2019-03-21T20:42:49.322Z,33.57
2019-03-21T20:45:19.252Z,39.10
2019-03-21T20:47:47.885Z,36.63
2019-03-21T20:50:17.423Z,36.80
2019-03-21T20:52:46.066Z,41.37
2019-03-21T20:55:14.735Z,37.03
2019-03-21T20:57:43.390Z,41.83
2019-03-21T21:00:20.834Z,36.23
2019-03-21T21:02:49.857Z,40.17
2019-03-21T21:05:18.768Z,39.83
2019-03-21T21:07:48.964Z,42.50
2019-03-21T21:10:17.670Z,38.83
2019-03-21T21:12:46.385Z,39.23
2019-03-21T21:15:17.132Z,43.97
2019-03-21T21:17:45.654Z,43.90
2019-03-21T21:20:17.975Z,45.07
2019-03-21T21:22:46.535Z,55.27
2019-03-21T21:25:15.227Z,51.30
2019-03-21T21:27:49.265Z,52.07
2019-03-21T21:30:20.422Z,43.57
2019-03-21T21:32:48.994Z,42.27
2019-03-21T21:35:17.648Z,48.30
2019-03-21T21:37:46.303Z,41.40
2019-03-21T21:40:16.676Z,38.73
2019-03-21T21:42:45.461Z,44.70
2019-03-21T21:45:16.684Z,40.60
2019-03-21T21:47:45.599Z,47.37
2019-03-21T21:50:15.576Z,38.60
2019-03-21T21:52:44.313Z,42.53
2019-03-21T21:55:13.128Z,41.53
2019-03-21T21:57:41.720Z,40.53
2019-03-21T22:00:18.966Z,47.27
2019-03-21T22:02:47.633Z,44.50
2019-03-21T22:05:16.313Z,40.77
2019-03-21T22:07:46.035Z,38.43
2019-03-21T22:10:14.754Z,38.30
2019-03-21T22:12:43.405Z,58.73
2019-03-21T22:15:13.844Z,50.97
2019-03-21T22:17:42.463Z,41.00
2019-03-21T22:20:17.493Z,45.87
2019-03-21T22:22:46.256Z,40.47
2019-03-21T22:25:15.246Z,44.53
2019-03-21T22:27:43.952Z,44.17
2019-03-21T22:30:15.540Z,43.77
2019-03-21T22:32:44.204Z,47.67
2019-03-21T22:35:12.943Z,40.43
2019-03-21T22:37:41.537Z,42.40
2019-03-21T22:40:12.642Z,42.50
2019-03-21T22:42:41.358Z,35.57
2019-03-21T22:45:12.261Z,43.90
2019-03-21T22:47:41.769Z,42.00
2019-03-21T22:50:14.947Z,45.97
2019-03-21T22:52:43.635Z,39.43
2019-03-21T22:55:12.782Z,43.93
2019-03-21T22:57:41.397Z,42.53
2019-03-21T23:00:24.686Z,41.80
2019-03-21T23:02:53.270Z,42.00
2019-03-21T23:05:21.989Z,43.53
2019-03-21T23:07:50.555Z,39.07
2019-03-21T23:10:19.368Z,39.33
2019-03-21T23:12:47.974Z,44.53
2019-03-21T23:15:16.566Z,46.27
2019-03-21T23:17:45.197Z,51.53
2019-03-21T23:20:15.591Z,44.17
2019-03-21T23:22:44.691Z,49.53
2019-03-21T23:25:16.508Z,45.93
2019-03-21T23:27:44.848Z,40.43
2019-03-21T23:30:16.297Z,42.33
2019-03-21T23:32:44.950Z,49.30
2019-03-21T23:35:13.689Z,40.60
2019-03-21T23:37:42.342Z,44.03
2019-03-21T23:40:12.374Z,41.70
2019-03-21T23:42:42.494Z,48.20
2019-03-21T23:45:12.207Z,47.97
2019-03-21T23:47:42.255Z,49.60
2019-03-21T23:50:12.860Z,44.93
2019-03-21T23:52:41.472Z,45.17
2019-03-21T23:55:13.269Z,42.53
2019-03-21T23:57:41.861Z,38.90
